sensor_id;sensor_type;location;lat;lon;timestamp;temperature;humidity
22738;DHT22;11536;50.860;4.286;2024-03-23T00:53:47;9.50;99.90
22738;DHT22;11536;50.860;4.286;2024-03-23T00:56:12;9.50;99.90
22738;DHT22;11536;50.860;4.286;2024-03-23T00:58:38;9.50;99.90
22738;DHT22;11536;50.860;4.286;2024-03-23T01:01:04;9.50;99.90
22738;DHT22;11536;50.860;4.286;2024-03-23T01:03:30;9.50;99.90
22738;DHT22;11536;50.860;4.286;2024-03-23T01:05:59;9.40;99.90
22738;DHT22;11536;50.860;4.286;2024-03-23T01:08:25;9.40;99.90
22738;DHT22;11536;50.860;4.286;2024-03-23T01:11:01;9.40;99.90
22738;DHT22;11536;50.860;4.286;2024-03-23T01:13:28;9.40;99.90
22738;DHT22;11536;50.860;4.286;2024-03-23T01:15:55;9.40;99.90
22738;DHT22;11536;50.860;4.286;2024-03-23T01:18:22;9.40;99.90
22738;DHT22;11536;50.860;4.286;2024-03-23T01:20:49;9.30;99.90
22738;DHT22;11536;50.860;4.286;2024-03-23T01:23:15;9.30;99.90
22738;DHT22;11536;50.860;4.286;2024-03-23T01:25:40;9.30;99.90
22738;DHT22;11536;50.860;4.286;2024-03-23T01:28:07;9.20;99.90
22738;DHT22;11536;50.860;4.286;2024-03-23T01:30:33;9.20;99.90
22738;DHT22;11536;50.860;4.286;2024-03-23T01:32:59;9.20;99.90
22738;DHT22;11536;50.860;4.286;2024-03-23T01:35:25;9.20;99.90
22738;DHT22;11536;50.860;4.286;2024-03-23T01:37:51;9.10;99.90
22738;DHT22;11536;50.860;4.286;2024-03-23T01:40:17;9.10;99.90
22738;DHT22;11536;50.860;4.286;2024-03-23T01:42:43;9.10;99.90
22738;DHT22;11536;50.860;4.286;2024-03-23T01:45:20;9.10;99.90
22738;DHT22;11536;50.860;4.286;2024-03-23T01:47:47;9.10;99.90
22738;DHT22;11536;50.860;4.286;2024-03-23T01:50:13;9.10;99.90
22738;DHT22;11536;50.860;4.286;2024-03-23T01:52:39;9.10;99.90
22738;DHT22;11536;50.860;4.286;2024-03-23T01:55:05;9.10;99.90
22738;DHT22;11536;50.860;4.286;2024-03-23T01:57:30;9.10;99.90
22738;DHT22;11536;50.860;4.286;2024-03-23T01:59:56;9.10;99.90
22738;DHT22;11536;50.860;4.286;2024-03-23T02:02:22;9.10;99.90
22738;DHT22;11536;50.860;4.286;2024-03-23T02:04:47;9.10;99.90
22738;DHT22;11536;50.860;4.286;2024-03-23T02:07:13;9.10;99.90
22738;DHT22;11536;50.860;4.286;2024-03-23T02:09:39;9.20;99.90
22738;DHT22;11536;50.860;4.286;2024-03-23T02:12:05;9.10;99.90
22738;DHT22;11536;50.860;4.286;2024-03-23T02:14:30;9.10;99.90
22738;DHT22;11536;50.860;4.286;2024-03-23T02:16:57;9.10;99.90
22738;DHT22;11536;50.860;4.286;2024-03-23T02:19:23;9.10;99.90
22738;DHT22;11536;50.860;4.286;2024-03-23T02:21:49;9.10;99.90
22738;DHT22;11536;50.860;4.286;2024-03-23T02:24:15;9.00;99.90
22738;DHT22;11536;50.860;4.286;2024-03-23T02:26:41;9.00;99.90
22738;DHT22;11536;50.860;4.286;2024-03-23T02:29:06;9.00;99.90
22738;DHT22;11536;50.860;4.286;2024-03-23T02:31:32;8.90;99.90
22738;DHT22;11536;50.860;4.286;2024-03-23T02:33:57;9.00;99.90
22738;DHT22;11536;50.860;4.286;2024-03-23T02:36:23;9.00;99.90
22738;DHT22;11536;50.860;4.286;2024-03-23T02:38:49;9.00;99.90
22738;DHT22;11536;50.860;4.286;2024-03-23T02:41:14;9.00;99.90
22738;DHT22;11536;50.860;4.286;2024-03-23T02:43:41;8.90;99.90
22738;DHT22;11536;50.860;4.286;2024-03-23T02:46:06;9.00;99.90
22738;DHT22;11536;50.860;4.286;2024-03-23T02:48:32;9.00;99.90
22738;DHT22;11536;50.860;4.286;2024-03-23T02:50:58;9.00;99.90
22738;DHT22;11536;50.860;4.286;2024-03-23T02:53:24;9.00;99.90
22738;DHT22;11536;50.860;4.286;2024-03-23T02:55:49;9.00;99.90
22738;DHT22;11536;50.860;4.286;2024-03-23T02:58:15;8.90;99.90
22738;DHT22;11536;50.860;4.286;2024-03-23T03:00:41;8.90;99.90
22738;DHT22;11536;50.860;4.286;2024-03-23T03:03:06;8.90;99.90
22738;DHT22;11536;50.860;4.286;2024-03-23T03:05:32;9.00;99.90
22738;DHT22;11536;50.860;4.286;2024-03-23T03:07:58;9.00;99.90
22738;DHT22;11536;50.860;4.286;2024-03-23T03:10:24;9.00;99.90
22738;DHT22;11536;50.860;4.286;2024-03-23T03:12:49;8.90;99.90
22738;DHT22;11536;50.860;4.286;2024-03-23T03:15:15;8.90;99.90
22738;DHT22;11536;50.860;4.286;2024-03-23T03:17:40;8.90;99.90
22738;DHT22;11536;50.860;4.286;2024-03-23T03:20:06;8.90;99.90
22738;DHT22;11536;50.860;4.286;2024-03-23T03:22:32;8.90;99.90
22738;DHT22;11536;50.860;4.286;2024-03-23T03:24:58;9.00;99.90
22738;DHT22;11536;50.860;4.286;2024-03-23T03:27:25;8.90;99.90
22738;DHT22;11536;50.860;4.286;2024-03-23T03:29:51;8.90;99.90
22738;DHT22;11536;50.860;4.286;2024-03-23T03:32:16;9.00;99.90
22738;DHT22;11536;50.860;4.286;2024-03-23T03:34:42;9.00;99.90
22738;DHT22;11536;50.860;4.286;2024-03-23T03:37:07;9.00;99.90
22738;DHT22;11536;50.860;4.286;2024-03-23T03:39:33;9.00;99.90
22738;DHT22;11536;50.860;4.286;2024-03-23T03:41:59;9.00;99.90
22738;DHT22;11536;50.860;4.286;2024-03-23T03:44:26;8.90;99.90
22738;DHT22;11536;50.860;4.286;2024-03-23T03:46:51;8.90;99.90
22738;DHT22;11536;50.860;4.286;2024-03-23T03:49:17;8.90;99.90
22738;DHT22;11536;50.860;4.286;2024-03-23T03:51:42;8.90;99.90
22738;DHT22;11536;50.860;4.286;2024-03-23T03:54:08;8.90;99.90
22738;DHT22;11536;50.860;4.286;2024-03-23T03:56:33;8.80;99.90
22738;DHT22;11536;50.860;4.286;2024-03-23T03:58:59;8.80;99.90
22738;DHT22;11536;50.860;4.286;2024-03-23T04:01:25;8.80;99.90
22738;DHT22;11536;50.860;4.286;2024-03-23T04:03:50;8.80;99.90
22738;DHT22;11536;50.860;4.286;2024-03-23T04:06:19;8.70;99.90
22738;DHT22;11536;50.860;4.286;2024-03-23T04:08:45;8.70;99.90
22738;DHT22;11536;50.860;4.286;2024-03-23T04:11:11;8.70;99.90
22738;DHT22;11536;50.860;4.286;2024-03-23T04:13:36;8.70;99.90
22738;DHT22;11536;50.860;4.286;2024-03-23T04:16:02;8.70;99.90
22738;DHT22;11536;50.860;4.286;2024-03-23T04:18:29;8.70;99.90
22738;DHT22;11536;50.860;4.286;2024-03-23T04:20:54;8.60;99.90
22738;DHT22;11536;50.860;4.286;2024-03-23T04:23:20;8.60;99.90
22738;DHT22;11536;50.860;4.286;2024-03-23T04:25:46;8.60;99.90
22738;DHT22;11536;50.860;4.286;2024-03-23T04:28:12;8.50;99.90
22738;DHT22;11536;50.860;4.286;2024-03-23T04:30:37;8.50;99.90
22738;DHT22;11536;50.860;4.286;2024-03-23T04:33:03;8.50;99.90
22738;DHT22;11536;50.860;4.286;2024-03-23T04:35:30;8.50;99.90
22738;DHT22;11536;50.860;4.286;2024-03-23T04:37:56;8.50;99.90
22738;DHT22;11536;50.860;4.286;2024-03-23T04:40:24;8.50;99.90
22738;DHT22;11536;50.860;4.286;2024-03-23T04:42:49;8.50;99.90
22738;DHT22;11536;50.860;4.286;2024-03-23T04:45:15;8.50;99.90
22738;DHT22;11536;50.860;4.286;2024-03-23T04:47:41;8.40;99.90
22738;DHT22;11536;50.860;4.286;2024-03-23T04:50:07;8.40;99.90
22738;DHT22;11536;50.860;4.286;2024-03-23T04:52:32;8.40;99.90
22738;DHT22;11536;50.860;4.286;2024-03-23T04:54:58;8.40;99.90
22738;DHT22;11536;50.860;4.286;2024-03-23T04:57:24;8.40;99.90
22738;DHT22;11536;50.860;4.286;2024-03-23T04:59:49;8.40;99.90
22738;DHT22;11536;50.860;4.286;2024-03-23T05:02:15;8.30;99.90
22738;DHT22;11536;50.860;4.286;2024-03-23T05:04:41;8.30;99.90
22738;DHT22;11536;50.860;4.286;2024-03-23T05:07:07;8.30;99.90
22738;DHT22;11536;50.860;4.286;2024-03-23T05:09:33;8.30;99.90
22738;DHT22;11536;50.860;4.286;2024-03-23T05:11:59;8.20;99.90
22738;DHT22;11536;50.860;4.286;2024-03-23T05:14:28;8.20;99.90
22738;DHT22;11536;50.860;4.286;2024-03-23T05:16:54;8.20;99.90
22738;DHT22;11536;50.860;4.286;2024-03-23T05:19:20;8.20;99.90
22738;DHT22;11536;50.860;4.286;2024-03-23T05:21:45;8.20;99.90
22738;DHT22;11536;50.860;4.286;2024-03-23T05:24:12;8.20;99.90
22738;DHT22;11536;50.860;4.286;2024-03-23T05:26:37;8.10;99.90
22738;DHT22;11536;50.860;4.286;2024-03-23T05:29:03;8.20;99.90
22738;DHT22;11536;50.860;4.286;2024-03-23T05:31:31;8.20;99.90
22738;DHT22;11536;50.860;4.286;2024-03-23T05:33:57;8.10;99.90
22738;DHT22;11536;50.860;4.286;2024-03-23T05:36:23;8.10;99.90
22738;DHT22;11536;50.860;4.286;2024-03-23T05:38:50;8.10;99.90
22738;DHT22;11536;50.860;4.286;2024-03-23T05:41:15;8.10;99.90
22738;DHT22;11536;50.860;4.286;2024-03-23T05:43:41;8.10;99.90
22738;DHT22;11536;50.860;4.286;2024-03-23T05:46:07;8.10;99.90
22738;DHT22;11536;50.860;4.286;2024-03-23T05:48:35;8.10;99.90
22738;DHT22;11536;50.860;4.286;2024-03-23T05:51:01;8.10;99.90
22738;DHT22;11536;50.860;4.286;2024-03-23T05:53:27;8.10;99.90
22738;DHT22;11536;50.860;4.286;2024-03-23T05:56:04;8.10;99.90
22738;DHT22;11536;50.860;4.286;2024-03-23T05:58:30;8.10;99.90
22738;DHT22;11536;50.860;4.286;2024-03-23T06:01:01;8.10;99.90
22738;DHT22;11536;50.860;4.286;2024-03-23T06:03:28;8.10;99.90
22738;DHT22;11536;50.860;4.286;2024-03-23T06:05:54;8.10;99.90
22738;DHT22;11536;50.860;4.286;2024-03-23T06:08:20;8.10;99.90
22738;DHT22;11536;50.860;4.286;2024-03-23T06:10:46;8.10;99.90
22738;DHT22;11536;50.860;4.286;2024-03-23T06:13:12;8.10;99.90
22738;DHT22;11536;50.860;4.286;2024-03-23T06:15:38;8.10;99.90
22738;DHT22;11536;50.860;4.286;2024-03-23T06:18:04;8.10;99.90
22738;DHT22;11536;50.860;4.286;2024-03-23T06:20:30;8.10;99.90
22738;DHT22;11536;50.860;4.286;2024-03-23T06:22:56;8.10;99.90
22738;DHT22;11536;50.860;4.286;2024-03-23T06:25:22;8.10;99.90
22738;DHT22;11536;50.860;4.286;2024-03-23T06:27:47;8.10;99.90
22738;DHT22;11536;50.860;4.286;2024-03-23T06:30:13;8.10;99.90
22738;DHT22;11536;50.860;4.286;2024-03-23T06:32:39;8.10;99.90
22738;DHT22;11536;50.860;4.286;2024-03-23T06:35:05;8.10;99.90
22738;DHT22;11536;50.860;4.286;2024-03-23T06:37:36;8.10;99.90
22738;DHT22;11536;50.860;4.286;2024-03-23T06:40:01;8.20;99.90
22738;DHT22;11536;50.860;4.286;2024-03-23T06:42:27;8.10;99.90
22738;DHT22;11536;50.860;4.286;2024-03-23T06:44:53;8.10;99.90
22738;DHT22;11536;50.860;4.286;2024-03-23T06:47:19;8.10;99.90
22738;DHT22;11536;50.860;4.286;2024-03-23T06:49:45;8.10;99.90
22738;DHT22;11536;50.860;4.286;2024-03-23T06:52:11;8.10;99.90
22738;DHT22;11536;50.860;4.286;2024-03-23T06:54:37;8.10;99.90
22738;DHT22;11536;50.860;4.286;2024-03-23T06:57:02;8.10;99.90
22738;DHT22;11536;50.860;4.286;2024-03-23T06:59:28;8.10;99.90
22738;DHT22;11536;50.860;4.286;2024-03-23T07:01:54;8.10;99.90
22738;DHT22;11536;50.860;4.286;2024-03-23T07:04:19;8.10;99.90
22738;DHT22;11536;50.860;4.286;2024-03-23T07:06:46;8.00;99.90
22738;DHT22;11536;50.860;4.286;2024-03-23T07:09:12;7.90;99.90
22738;DHT22;11536;50.860;4.286;2024-03-23T07:11:38;7.80;99.90
22738;DHT22;11536;50.860;4.286;2024-03-23T07:14:04;7.70;99.90
22738;DHT22;11536;50.860;4.286;2024-03-23T07:16:30;7.60;99.90
22738;DHT22;11536;50.860;4.286;2024-03-23T07:18:55;7.60;99.90
22738;DHT22;11536;50.860;4.286;2024-03-23T07:21:21;7.60;99.90
22738;DHT22;11536;50.860;4.286;2024-03-23T07:23:47;7.60;99.90
22738;DHT22;11536;50.860;4.286;2024-03-23T07:26:13;7.70;99.90
22738;DHT22;11536;50.860;4.286;2024-03-23T07:28:38;7.80;99.90
22738;DHT22;11536;50.860;4.286;2024-03-23T07:31:11;7.80;99.90
22738;DHT22;11536;50.860;4.286;2024-03-23T07:33:42;8.00;99.90
22738;DHT22;11536;50.860;4.286;2024-03-23T07:36:08;8.10;99.90
22738;DHT22;11536;50.860;4.286;2024-03-23T07:38:34;8.30;99.90
22738;DHT22;11536;50.860;4.286;2024-03-23T07:41:10;8.30;99.90
22738;DHT22;11536;50.860;4.286;2024-03-23T07:43:39;8.40;99.90
22738;DHT22;11536;50.860;4.286;2024-03-23T07:46:05;8.50;99.90
22738;DHT22;11536;50.860;4.286;2024-03-23T07:48:31;8.60;99.90
22738;DHT22;11536;50.860;4.286;2024-03-23T07:51:04;8.60;99.90
22738;DHT22;11536;50.860;4.286;2024-03-23T07:53:31;8.70;99.90
22738;DHT22;11536;50.860;4.286;2024-03-23T07:56:02;8.80;99.90
22738;DHT22;11536;50.860;4.286;2024-03-23T07:58:28;8.90;99.90
22738;DHT22;11536;50.860;4.286;2024-03-23T08:01:10;8.90;99.90
22738;DHT22;11536;50.860;4.286;2024-03-23T08:03:40;8.90;99.90
22738;DHT22;11536;50.860;4.286;2024-03-23T08:06:16;8.90;99.90
22738;DHT22;11536;50.860;4.286;2024-03-23T08:08:45;8.90;99.90
22738;DHT22;11536;50.860;4.286;2024-03-23T08:11:11;8.80;99.90
22738;DHT22;11536;50.860;4.286;2024-03-23T08:13:39;8.80;99.90
22738;DHT22;11536;50.860;4.286;2024-03-23T08:16:05;8.70;99.90
22738;DHT22;11536;50.860;4.286;2024-03-23T08:18:31;8.70;99.90
22738;DHT22;11536;50.860;4.286;2024-03-23T08:23:24;8.80;99.90
22738;DHT22;11536;50.860;4.286;2024-03-23T08:25:50;8.90;99.90
22738;DHT22;11536;50.860;4.286;2024-03-23T08:28:16;8.90;99.90
22738;DHT22;11536;50.860;4.286;2024-03-23T08:30:42;8.90;99.90
22738;DHT22;11536;50.860;4.286;2024-03-23T08:33:08;8.90;99.90
22738;DHT22;11536;50.860;4.286;2024-03-23T08:35:33;8.90;99.90
22738;DHT22;11536;50.860;4.286;2024-03-23T08:38:00;8.90;99.90
22738;DHT22;11536;50.860;4.286;2024-03-23T08:40:25;8.90;99.90
22738;DHT22;11536;50.860;4.286;2024-03-23T08:42:51;8.80;99.90
22738;DHT22;11536;50.860;4.286;2024-03-23T08:45:17;8.80;99.90
22738;DHT22;11536;50.860;4.286;2024-03-23T08:47:42;8.80;99.90
22738;DHT22;11536;50.860;4.286;2024-03-23T08:50:08;8.80;99.90
22738;DHT22;11536;50.860;4.286;2024-03-23T08:52:34;8.90;99.90
22738;DHT22;11536;50.860;4.286;2024-03-23T08:54:59;8.90;99.90
22738;DHT22;11536;50.860;4.286;2024-03-23T08:57:25;8.90;99.90
22738;DHT22;11536;50.860;4.286;2024-03-23T08:59:51;9.00;99.90
22738;DHT22;11536;50.860;4.286;2024-03-23T09:02:16;9.00;99.90
22738;DHT22;11536;50.860;4.286;2024-03-23T09:04:42;9.00;99.90
22738;DHT22;11536;50.860;4.286;2024-03-23T09:07:09;9.10;99.90
22738;DHT22;11536;50.860;4.286;2024-03-23T09:09:34;9.10;99.90
22738;DHT22;11536;50.860;4.286;2024-03-23T09:12:00;9.20;99.90
22738;DHT22;11536;50.860;4.286;2024-03-23T09:14:26;9.20;99.90
22738;DHT22;11536;50.860;4.286;2024-03-23T09:16:51;9.20;99.90
22738;DHT22;11536;50.860;4.286;2024-03-23T09:19:17;9.30;99.90
22738;DHT22;11536;50.860;4.286;2024-03-23T09:21:43;9.30;99.90
22738;DHT22;11536;50.860;4.286;2024-03-23T09:24:09;9.40;99.90
22738;DHT22;11536;50.860;4.286;2024-03-23T09:26:34;9.40;99.90
22738;DHT22;11536;50.860;4.286;2024-03-23T09:29:00;9.40;99.90
22738;DHT22;11536;50.860;4.286;2024-03-23T09:31:26;9.50;99.90
22738;DHT22;11536;50.860;4.286;2024-03-23T09:33:51;9.50;99.90
22738;DHT22;11536;50.860;4.286;2024-03-23T09:36:17;9.60;99.90
22738;DHT22;11536;50.860;4.286;2024-03-23T09:38:42;9.60;99.90
22738;DHT22;11536;50.860;4.286;2024-03-23T09:41:08;9.70;99.90
22738;DHT22;11536;50.860;4.286;2024-03-23T09:43:35;9.70;99.90
22738;DHT22;11536;50.860;4.286;2024-03-23T09:46:01;9.60;99.90
22738;DHT22;11536;50.860;4.286;2024-03-23T09:48:28;9.60;99.90
22738;DHT22;11536;50.860;4.286;2024-03-23T09:50:53;9.70;99.90
22738;DHT22;11536;50.860;4.286;2024-03-23T09:53:19;9.70;99.90
22738;DHT22;11536;50.860;4.286;2024-03-23T09:55:45;9.70;99.90
22738;DHT22;11536;50.860;4.286;2024-03-23T09:58:17;9.70;99.90
22738;DHT22;11536;50.860;4.286;2024-03-23T10:00:44;9.70;99.90
22738;DHT22;11536;50.860;4.286;2024-03-23T10:03:10;9.50;99.90
22738;DHT22;11536;50.860;4.286;2024-03-23T10:05:37;9.40;99.90
22738;DHT22;11536;50.860;4.286;2024-03-23T10:10:41;9.40;99.90
22738;DHT22;11536;50.860;4.286;2024-03-23T10:13:07;9.50;99.90
22738;DHT22;11536;50.860;4.286;2024-03-23T10:15:36;9.60;99.90
22738;DHT22;11536;50.860;4.286;2024-03-23T10:18:20;9.70;99.90
22738;DHT22;11536;50.860;4.286;2024-03-23T10:21:08;9.80;99.90
22738;DHT22;11536;50.860;4.286;2024-03-23T10:23:43;9.80;99.90
22738;DHT22;11536;50.860;4.286;2024-03-23T10:26:20;9.90;99.90
22738;DHT22;11536;50.860;4.286;2024-03-23T10:31:33;9.70;99.90
22738;DHT22;11536;50.860;4.286;2024-03-23T10:34:02;9.60;99.90
22738;DHT22;11536;50.860;4.286;2024-03-23T10:36:29;9.60;99.90
22738;DHT22;11536;50.860;4.286;2024-03-23T10:38:55;9.60;99.90
22738;DHT22;11536;50.860;4.286;2024-03-23T10:41:27;9.70;99.90
22738;DHT22;11536;50.860;4.286;2024-03-23T10:43:53;9.80;99.90
22738;DHT22;11536;50.860;4.286;2024-03-23T10:46:20;9.90;99.90
22738;DHT22;11536;50.860;4.286;2024-03-23T10:48:46;10.00;99.90
22738;DHT22;11536;50.860;4.286;2024-03-23T10:51:13;10.00;99.90
22738;DHT22;11536;50.860;4.286;2024-03-23T10:53:39;10.00;99.90
22738;DHT22;11536;50.860;4.286;2024-03-23T10:56:06;10.10;99.90
22738;DHT22;11536;50.860;4.286;2024-03-23T10:58:38;10.20;99.90
22738;DHT22;11536;50.860;4.286;2024-03-23T11:01:04;10.20;99.90
22738;DHT22;11536;50.860;4.286;2024-03-23T11:03:33;10.30;99.90
22738;DHT22;11536;50.860;4.286;2024-03-23T11:06:00;10.30;99.90
22738;DHT22;11536;50.860;4.286;2024-03-23T11:08:33;10.40;99.90
22738;DHT22;11536;50.860;4.286;2024-03-23T11:11:19;10.40;99.90
22738;DHT22;11536;50.860;4.286;2024-03-23T11:13:48;10.40;99.90
22738;DHT22;11536;50.860;4.286;2024-03-23T11:16:17;10.40;99.90
22738;DHT22;11536;50.860;4.286;2024-03-23T11:18:46;10.40;99.90
22738;DHT22;11536;50.860;4.286;2024-03-23T11:24:16;10.40;99.90
22738;DHT22;11536;50.860;4.286;2024-03-23T11:26:42;10.50;99.90
22738;DHT22;11536;50.860;4.286;2024-03-23T11:29:12;10.60;99.90
22738;DHT22;11536;50.860;4.286;2024-03-23T11:31:38;10.60;99.90
22738;DHT22;11536;50.860;4.286;2024-03-23T11:34:06;10.50;99.90
22738;DHT22;11536;50.860;4.286;2024-03-23T11:36:32;10.50;99.90
22738;DHT22;11536;50.860;4.286;2024-03-23T11:38:58;10.50;99.90
22738;DHT22;11536;50.860;4.286;2024-03-23T11:41:24;10.50;99.90
22738;DHT22;11536;50.860;4.286;2024-03-23T11:43:50;10.50;99.90
22738;DHT22;11536;50.860;4.286;2024-03-23T11:46:22;10.40;99.90
22738;DHT22;11536;50.860;4.286;2024-03-23T11:48:51;10.50;99.90
22738;DHT22;11536;50.860;4.286;2024-03-23T11:51:17;10.50;99.90
22738;DHT22;11536;50.860;4.286;2024-03-23T11:53:43;10.60;99.90
22738;DHT22;11536;50.860;4.286;2024-03-23T11:56:08;10.60;99.90
22738;DHT22;11536;50.860;4.286;2024-03-23T11:58:35;10.70;99.90
22738;DHT22;11536;50.860;4.286;2024-03-23T12:01:02;10.70;99.90
22738;DHT22;11536;50.860;4.286;2024-03-23T12:03:29;10.70;99.90
22738;DHT22;11536;50.860;4.286;2024-03-23T12:05:57;10.70;99.90
22738;DHT22;11536;50.860;4.286;2024-03-23T12:11:08;10.70;99.90
22738;DHT22;11536;50.860;4.286;2024-03-23T12:13:38;10.60;99.90
22738;DHT22;11536;50.860;4.286;2024-03-23T12:16:17;10.50;99.90
22738;DHT22;11536;50.860;4.286;2024-03-23T12:18:44;10.50;99.90
22738;DHT22;11536;50.860;4.286;2024-03-23T12:21:10;10.30;99.90
22738;DHT22;11536;50.860;4.286;2024-03-23T12:23:39;10.20;99.90
22738;DHT22;11536;50.860;4.286;2024-03-23T12:26:05;10.00;99.90
22738;DHT22;11536;50.860;4.286;2024-03-23T12:28:31;10.10;99.90
22738;DHT22;11536;50.860;4.286;2024-03-23T12:30:57;10.20;99.90
22738;DHT22;11536;50.860;4.286;2024-03-23T12:33:22;10.50;99.90
22738;DHT22;11536;50.860;4.286;2024-03-23T12:35:51;10.70;99.90
22738;DHT22;11536;50.860;4.286;2024-03-23T12:38:17;10.90;99.90
22738;DHT22;11536;50.860;4.286;2024-03-23T12:40:49;11.20;99.90
22738;DHT22;11536;50.860;4.286;2024-03-23T12:43:16;11.50;99.90
22738;DHT22;11536;50.860;4.286;2024-03-23T12:45:47;11.70;99.90
22738;DHT22;11536;50.860;4.286;2024-03-23T12:48:13;11.90;99.90
22738;DHT22;11536;50.860;4.286;2024-03-23T12:50:38;11.90;99.90
22738;DHT22;11536;50.860;4.286;2024-03-23T12:53:04;12.10;99.90
22738;DHT22;11536;50.860;4.286;2024-03-23T12:55:30;12.40;99.90
22738;DHT22;11536;50.860;4.286;2024-03-23T12:57:55;12.60;99.90
22738;DHT22;11536;50.860;4.286;2024-03-23T13:00:22;12.80;99.90
22738;DHT22;11536;50.860;4.286;2024-03-23T13:02:47;12.90;99.90
22738;DHT22;11536;50.860;4.286;2024-03-23T13:05:13;12.90;99.90
22738;DHT22;11536;50.860;4.286;2024-03-23T13:07:39;12.70;99.90
22738;DHT22;11536;50.860;4.286;2024-03-23T13:10:07;12.70;99.90
22738;DHT22;11536;50.860;4.286;2024-03-23T13:12:34;12.80;99.90
22738;DHT22;11536;50.860;4.286;2024-03-23T13:15:00;12.90;99.90
22738;DHT22;11536;50.860;4.286;2024-03-23T13:17:26;13.00;99.90
22738;DHT22;11536;50.860;4.286;2024-03-23T13:19:53;12.80;99.90
22738;DHT22;11536;50.860;4.286;2024-03-23T13:22:19;12.80;99.90
22738;DHT22;11536;50.860;4.286;2024-03-23T13:24:44;12.60;99.90
22738;DHT22;11536;50.860;4.286;2024-03-23T13:27:10;12.50;99.90
22738;DHT22;11536;50.860;4.286;2024-03-23T13:29:36;12.80;99.90
22738;DHT22;11536;50.860;4.286;2024-03-23T13:32:03;13.00;99.90
22738;DHT22;11536;50.860;4.286;2024-03-23T13:34:29;13.00;99.90
22738;DHT22;11536;50.860;4.286;2024-03-23T13:36:55;12.90;99.90
22738;DHT22;11536;50.860;4.286;2024-03-23T13:39:23;12.60;99.90
22738;DHT22;11536;50.860;4.286;2024-03-23T13:41:50;12.20;99.90
22738;DHT22;11536;50.860;4.286;2024-03-23T13:44:15;12.10;99.90
22738;DHT22;11536;50.860;4.286;2024-03-23T13:46:42;12.10;99.90
22738;DHT22;11536;50.860;4.286;2024-03-23T13:49:28;12.30;99.90
22738;DHT22;11536;50.860;4.286;2024-03-23T13:51:55;12.60;99.90
22738;DHT22;11536;50.860;4.286;2024-03-23T13:54:21;13.00;99.90
22738;DHT22;11536;50.860;4.286;2024-03-23T13:56:56;13.20;99.90
22738;DHT22;11536;50.860;4.286;2024-03-23T13:59:23;13.50;99.90
22738;DHT22;11536;50.860;4.286;2024-03-23T14:01:49;13.40;99.90
22738;DHT22;11536;50.860;4.286;2024-03-23T14:04:16;13.20;99.90
22738;DHT22;11536;50.860;4.286;2024-03-23T14:06:46;13.00;99.90
22738;DHT22;11536;50.860;4.286;2024-03-23T14:09:12;12.90;99.90
22738;DHT22;11536;50.860;4.286;2024-03-23T14:11:38;12.80;99.90
22738;DHT22;11536;50.860;4.286;2024-03-23T14:14:04;12.70;99.90
22738;DHT22;11536;50.860;4.286;2024-03-23T14:16:32;12.70;99.90
22738;DHT22;11536;50.860;4.286;2024-03-23T14:18:59;12.80;99.90
22738;DHT22;11536;50.860;4.286;2024-03-23T14:21:24;13.00;99.90
22738;DHT22;11536;50.860;4.286;2024-03-23T14:23:50;13.10;99.90
22738;DHT22;11536;50.860;4.286;2024-03-23T14:26:16;13.10;99.90
22738;DHT22;11536;50.860;4.286;2024-03-23T14:28:41;13.00;99.90
22738;DHT22;11536;50.860;4.286;2024-03-23T14:31:07;13.00;99.90
22738;DHT22;11536;50.860;4.286;2024-03-23T14:33:39;12.80;99.90
22738;DHT22;11536;50.860;4.286;2024-03-23T14:36:10;12.60;99.90
22738;DHT22;11536;50.860;4.286;2024-03-23T14:38:36;12.50;99.90
22738;DHT22;11536;50.860;4.286;2024-03-23T14:41:03;12.40;99.90
22738;DHT22;11536;50.860;4.286;2024-03-23T14:43:29;12.40;99.90
22738;DHT22;11536;50.860;4.286;2024-03-23T14:46:11;12.40;99.90
22738;DHT22;11536;50.860;4.286;2024-03-23T14:48:38;12.60;99.90
22738;DHT22;11536;50.860;4.286;2024-03-23T14:51:05;12.60;99.90
22738;DHT22;11536;50.860;4.286;2024-03-23T14:53:35;12.70;99.90
22738;DHT22;11536;50.860;4.286;2024-03-23T14:56:01;12.80;99.90
22738;DHT22;11536;50.860;4.286;2024-03-23T14:58:28;12.70;99.90
22738;DHT22;11536;50.860;4.286;2024-03-23T15:01:03;12.70;99.90
22738;DHT22;11536;50.860;4.286;2024-03-23T15:03:29;12.60;99.90
22738;DHT22;11536;50.860;4.286;2024-03-23T15:05:56;12.80;99.90
22738;DHT22;11536;50.860;4.286;2024-03-23T15:08:22;12.80;99.90
22738;DHT22;11536;50.860;4.286;2024-03-23T15:10:48;12.80;99.90
22738;DHT22;11536;50.860;4.286;2024-03-23T15:13:14;12.80;99.90
22738;DHT22;11536;50.860;4.286;2024-03-23T15:15:42;12.90;99.90
22738;DHT22;11536;50.860;4.286;2024-03-23T15:18:11;12.90;99.90
22738;DHT22;11536;50.860;4.286;2024-03-23T15:20:38;12.90;99.90
22738;DHT22;11536;50.860;4.286;2024-03-23T15:23:04;12.80;99.90
22738;DHT22;11536;50.860;4.286;2024-03-23T15:25:30;12.70;99.90
22738;DHT22;11536;50.860;4.286;2024-03-23T15:27:56;12.60;99.90
22738;DHT22;11536;50.860;4.286;2024-03-23T15:30:23;12.60;99.90
22738;DHT22;11536;50.860;4.286;2024-03-23T15:32:49;12.70;99.90
22738;DHT22;11536;50.860;4.286;2024-03-23T15:35:14;12.70;99.90
22738;DHT22;11536;50.860;4.286;2024-03-23T15:37:40;12.80;99.90
22738;DHT22;11536;50.860;4.286;2024-03-23T15:40:07;12.80;99.90
22738;DHT22;11536;50.860;4.286;2024-03-23T15:42:32;12.80;99.90
22738;DHT22;11536;50.860;4.286;2024-03-23T15:44:58;12.80;99.90
22738;DHT22;11536;50.860;4.286;2024-03-23T15:47:24;12.80;99.90
22738;DHT22;11536;50.860;4.286;2024-03-23T15:49:50;12.80;99.90
22738;DHT22;11536;50.860;4.286;2024-03-23T15:52:19;12.70;99.90
22738;DHT22;11536;50.860;4.286;2024-03-23T15:54:44;12.50;99.90
22738;DHT22;11536;50.860;4.286;2024-03-23T15:57:10;12.50;99.90
22738;DHT22;11536;50.860;4.286;2024-03-23T15:59:35;12.50;99.90
22738;DHT22;11536;50.860;4.286;2024-03-23T16:02:01;12.50;99.90
22738;DHT22;11536;50.860;4.286;2024-03-23T16:04:28;12.50;99.90
22738;DHT22;11536;50.860;4.286;2024-03-23T16:06:53;12.30;99.90
22738;DHT22;11536;50.860;4.286;2024-03-23T16:09:19;12.30;99.90
22738;DHT22;11536;50.860;4.286;2024-03-23T16:11:45;12.10;99.90
22738;DHT22;11536;50.860;4.286;2024-03-23T16:14:10;12.20;99.90
22738;DHT22;11536;50.860;4.286;2024-03-23T16:16:36;12.20;99.90
22738;DHT22;11536;50.860;4.286;2024-03-23T16:19:01;12.20;99.90
22738;DHT22;11536;50.860;4.286;2024-03-23T16:21:27;12.10;99.90
22738;DHT22;11536;50.860;4.286;2024-03-23T16:23:53;12.10;99.90
22738;DHT22;11536;50.860;4.286;2024-03-23T16:26:18;12.10;99.90
22738;DHT22;11536;50.860;4.286;2024-03-23T16:28:44;12.10;99.90
22738;DHT22;11536;50.860;4.286;2024-03-23T16:31:11;12.10;99.90
22738;DHT22;11536;50.860;4.286;2024-03-23T16:33:37;12.00;99.90
22738;DHT22;11536;50.860;4.286;2024-03-23T16:36:05;12.00;99.90
22738;DHT22;11536;50.860;4.286;2024-03-23T16:38:31;11.90;99.90
22738;DHT22;11536;50.860;4.286;2024-03-23T16:41:01;11.80;99.90
22738;DHT22;11536;50.860;4.286;2024-03-23T16:43:28;11.80;99.90